Time;durP1;ratioP1;P1;durP2;ratioP2;P2;SDS_P1;SDS_P2;PMS_P1;PMS_P2;Temp;Humidity;BMP_temperature;BMP_pressure;BME280_temperature;BME280_humidity;BME280_pressure;Samples;Min_cycle;Max_cycle;Signal;HPM_P1;HPM_P2
2022/07/28 03:02:35;;;;;;;4.43;2.10;;;26.10;35.70;;;;;;4972937;23;45259;-69
2022/07/28 03:05:02;;;;;;;4.10;1.75;;;26.10;35.60;;;;;;4953904;28;45019;-69
2022/07/28 03:07:30;;;;;;;4.10;1.67;;;26.20;35.70;;;;;;4936022;28;44961;-65
2022/07/28 03:09:57;;;;;;;2.72;1.50;;;26.10;36.10;;;;;;4942970;28;45138;-66
2022/07/28 03:12:23;;;;;;;3.45;1.30;;;26.10;35.90;;;;;;4984724;28;45245;-66
2022/07/28 03:14:50;;;;;;;2.45;1.25;;;26.00;35.90;;;;;;4970333;28;44917;-69
2022/07/28 03:17:16;;;;;;;2.00;1.00;;;26.00;35.90;;;;;;4983161;28;45209;-64
2022/07/28 03:19:42;;;;;;;2.65;1.40;;;26.00;35.90;;;;;;4985480;28;45206;-67
2022/07/28 03:22:09;;;;;;;2.15;1.17;;;26.00;36.00;;;;;;4970544;28;46180;-69
2022/07/28 03:24:40;;;;;;;3.50;2.05;;;26.00;35.90;;;;;;4986528;28;44640;-64
2022/07/28 03:27:11;;;;;;;5.43;2.33;;;26.00;35.90;;;;;;4970687;28;44860;-67
2022/07/28 03:29:37;;;;;;;4.63;2.08;;;26.00;35.90;;;;;;4972642;28;45141;-66
2022/07/28 03:32:04;;;;;;;7.00;2.10;;;25.90;36.00;;;;;;4954639;28;45101;-69
2022/07/28 03:34:30;;;;;;;4.10;1.83;;;25.90;36.10;;;;;;4969092;28;45003;-67
2022/07/28 03:37:00;;;;;;;6.15;1.92;;;25.80;36.10;;;;;;4970493;28;45172;-66
2022/07/28 03:39:28;;;;;;;4.85;1.77;;;25.80;36.20;;;;;;4969816;28;45277;-66
2022/07/28 03:41:54;;;;;;;3.90;1.88;;;25.70;36.20;;;;;;4967218;28;46321;-67
2022/07/28 03:44:21;;;;;;;5.90;1.67;;;25.70;36.30;;;;;;4964444;28;45106;-65
2022/07/28 03:46:47;;;;;;;5.43;1.67;;;25.70;36.20;;;;;;4973502;28;45892;-66
2022/07/28 03:49:13;;;;;;;3.95;1.50;;;25.70;36.20;;;;;;4984036;28;45018;-66
2022/07/28 03:51:40;;;;;;;4.78;1.50;;;25.80;36.30;;;;;;4984338;28;45251;-65
2022/07/28 03:54:06;;;;;;;2.75;1.17;;;25.80;36.30;;;;;;4983326;28;45046;-65
2022/07/28 03:56:32;;;;;;;2.28;1.58;;;25.80;36.30;;;;;;4986269;28;45273;-67
2022/07/28 03:58:58;;;;;;;3.30;1.50;;;25.80;36.20;;;;;;4986376;28;45075;-69
2022/07/28 04:01:25;;;;;;;7.07;1.40;;;25.80;36.20;;;;;;4978955;28;45704;-65
2022/07/28 04:03:51;;;;;;;3.88;1.67;;;25.70;36.30;;;;;;4986508;28;45220;-65
2022/07/28 04:06:17;;;;;;;9.25;1.95;;;25.70;36.30;;;;;;4970975;28;46067;-68
2022/07/28 04:08:43;;;;;;;7.82;1.50;;;25.60;36.30;;;;;;4989188;28;45090;-68
2022/07/28 04:11:10;;;;;;;3.30;1.27;;;25.60;36.50;;;;;;4987084;28;46075;-69
2022/07/28 04:13:36;;;;;;;5.57;1.10;;;25.60;36.50;;;;;;4971608;28;45215;-66
2022/07/28 04:16:03;;;;;;;2.50;1.13;;;25.60;36.60;;;;;;4988014;28;44960;-67
2022/07/28 04:18:29;;;;;;;3.95;1.75;;;25.50;36.60;;;;;;4957750;28;44751;-67
2022/07/28 04:20:56;;;;;;;8.18;2.22;;;25.50;36.60;;;;;;4985654;28;44996;-68
2022/07/28 04:23:22;;;;;;;10.57;3.28;;;25.50;36.60;;;;;;4987032;28;44962;-66
2022/07/28 04:25:49;;;;;;;6.85;2.58;;;25.50;36.70;;;;;;4984801;28;45024;-68
2022/07/28 04:28:15;;;;;;;7.50;2.70;;;25.50;36.60;;;;;;4986929;28;45999;-64
2022/07/28 04:30:41;;;;;;;9.20;2.78;;;25.50;36.60;;;;;;4978745;28;45575;-69
2022/07/28 04:33:08;;;;;;;9.38;2.92;;;25.50;36.70;;;;;;4981372;28;44960;-69
2022/07/28 04:35:35;;;;;;;10.43;3.40;;;25.50;36.70;;;;;;4987392;28;44917;-65
2022/07/28 04:38:01;;;;;;;5.20;2.42;;;25.50;36.70;;;;;;4986799;28;45515;-70
2022/07/28 04:40:28;;;;;;;4.97;2.13;;;25.40;36.70;;;;;;4985881;28;46333;-67
2022/07/28 04:42:54;;;;;;;8.05;2.08;;;25.40;36.80;;;;;;4987120;28;45000;-66
2022/07/28 04:45:21;;;;;;;4.70;1.70;;;25.40;36.90;;;;;;4984908;28;44969;-67
2022/07/28 04:47:47;;;;;;;5.40;2.00;;;25.40;37.00;;;;;;4983879;28;45029;-66
2022/07/28 04:50:19;;;;;;;5.50;1.90;;;25.40;36.90;;;;;;4970664;28;46004;-65
2022/07/28 04:52:48;;;;;;;5.55;1.92;;;25.30;36.90;;;;;;4984224;28;45394;-67
2022/07/28 04:55:14;;;;;;;5.13;2.30;;;25.30;37.00;;;;;;4963875;28;45220;-71
2022/07/28 04:57:41;;;;;;;7.50;2.72;;;25.30;37.00;;;;;;4965124;28;46042;-67
2022/07/28 05:00:14;;;;;;;8.25;3.15;;;25.30;37.10;;;;;;4982821;28;45957;-69
2022/07/28 05:02:40;;;;;;;;;;;25.30;37.20;;;;;;4952540;28;45016;-66
2022/07/28 05:05:07;;;;;;;7.78;3.30;;;25.30;37.60;;;;;;4984800;28;45035;-69
2022/07/28 05:07:33;;;;;;;7.45;2.88;;;25.30;37.20;;;;;;4981768;28;45175;-66
2022/07/28 05:10:00;;;;;;;7.10;2.70;;;25.30;37.20;;;;;;4971885;28;46996;-67
2022/07/28 05:12:26;;;;;;;5.88;2.20;;;25.30;37.20;;;;;;4982179;28;44984;-65
2022/07/28 05:14:52;;;;;;;6.13;2.10;;;25.30;37.30;;;;;;4983665;28;44928;-66
2022/07/28 05:17:19;;;;;;;4.45;2.05;;;25.30;37.20;;;;;;4971151;28;45111;-68
2022/07/28 05:19:45;;;;;;;5.35;1.98;;;25.30;37.10;;;;;;4984168;28;46195;-68
2022/07/28 05:22:11;;;;;;;5.40;1.77;;;25.30;37.10;;;;;;4966255;28;44998;-66
2022/07/28 05:24:37;;;;;;;5.47;1.50;;;25.40;37.20;;;;;;4981185;28;44654;-70
2022/07/28 05:27:04;;;;;;;3.65;1.45;;;25.40;37.20;;;;;;4982434;28;44974;-68
2022/07/28 05:29:30;;;;;;;3.50;1.40;;;25.40;37.10;;;;;;4985248;28;44889;-67
2022/07/28 05:31:56;;;;;;;3.38;1.40;;;25.50;37.00;;;;;;4966097;28;45522;-70
2022/07/28 05:34:23;;;;;;;4.55;1.80;;;26.10;36.20;;;;;;4990166;28;45031;-67
2022/07/28 05:36:49;;;;;;;5.35;1.40;;;26.80;35.20;;;;;;4988781;28;44811;-68
2022/07/28 05:39:15;;;;;;;4.20;1.48;;;27.00;34.70;;;;;;4991411;28;45378;-64
2022/07/28 05:41:41;;;;;;;5.93;1.70;;;27.30;34.30;;;;;;4985648;28;44758;-69
2022/07/28 05:44:08;;;;;;;3.17;1.17;;;27.80;33.70;;;;;;4989429;28;45062;-66
2022/07/28 05:46:34;;;;;;;5.90;1.17;;;28.00;33.20;;;;;;4987715;28;44914;-66
2022/07/28 05:49:02;;;;;;;3.10;1.00;;;27.80;33.50;;;;;;4987506;28;46342;-66
2022/07/28 05:51:28;;;;;;;3.38;1.10;;;27.40;34.20;;;;;;4971322;28;46090;-67
2022/07/28 05:53:54;;;;;;;5.05;1.02;;;26.90;34.80;;;;;;4986806;28;44993;-66
2022/07/28 05:56:21;;;;;;;2.40;1.20;;;26.60;35.30;;;;;;4972561;28;44963;-67
2022/07/28 05:58:48;;;;;;;7.22;1.00;;;26.40;35.80;;;;;;4968565;28;46019;-65
2022/07/28 06:01:14;;;;;;;1.35;0.77;;;26.20;36.00;;;;;;4983178;28;45081;-65
2022/07/28 06:03:41;;;;;;;9.13;1.60;;;26.20;36.30;;;;;;4972290;28;45249;-67
2022/07/28 06:06:07;;;;;;;3.63;0.93;;;26.10;36.30;;;;;;4989516;28;44841;-66
2022/07/28 06:08:35;;;;;;;4.72;1.00;;;26.10;36.40;;;;;;4989957;28;45974;-66
2022/07/28 06:11:07;;;;;;;2.67;1.05;;;26.10;36.50;;;;;;4985991;28;46046;-66
2022/07/28 06:13:37;;;;;;;3.50;1.08;;;26.10;36.50;;;;;;4973040;28;45335;-66
2022/07/28 06:16:04;;;;;;;2.40;0.85;;;26.10;36.50;;;;;;4972723;28;45182;-65
2022/07/28 06:18:31;;;;;;;6.03;0.82;;;26.10;36.50;;;;;;4989769;28;46149;-65
2022/07/28 06:20:57;;;;;;;2.88;0.85;;;26.10;36.40;;;;;;4963272;28;45247;-67
2022/07/28 06:23:23;;;;;;;3.22;1.33;;;26.20;36.50;;;;;;4976356;28;44901;-66
2022/07/28 06:25:50;;;;;;;5.22;1.25;;;26.20;36.50;;;;;;4971890;28;45010;-65
2022/07/28 06:28:19;;;;;;;1.55;0.70;;;26.20;36.50;;;;;;4989229;28;45375;-65
2022/07/28 06:30:47;;;;;;;3.22;1.30;;;26.20;36.50;;;;;;4971481;28;45291;-66
2022/07/28 06:33:14;;;;;;;6.40;1.45;;;26.20;36.40;;;;;;4987241;28;44755;-66
2022/07/28 06:35:40;;;;;;;3.55;1.27;;;26.20;36.20;;;;;;4951754;28;44861;-65
2022/07/28 06:38:07;;;;;;;4.47;1.35;;;26.30;36.10;;;;;;4988533;28;44977;-69
2022/07/28 06:40:33;;;;;;;6.28;1.40;;;26.30;36.10;;;;;;4987961;28;45385;-70
2022/07/28 06:42:59;;;;;;;2.17;1.30;;;26.30;36.10;;;;;;4989341;28;45050;-66
2022/07/28 06:45:26;;;;;;;7.10;1.42;;;26.40;36.20;;;;;;4984178;28;45027;-68
2022/07/28 06:47:52;;;;;;;5.63;1.80;;;26.40;36.10;;;;;;4971314;28;46529;-68
2022/07/28 06:50:19;;;;;;;2.97;1.52;;;26.40;36.10;;;;;;4967073;28;44775;-70
2022/07/28 06:52:45;;;;;;;6.10;1.70;;;26.50;36.00;;;;;;4952442;28;44855;-68
2022/07/28 06:55:14;;;;;;;3.42;1.52;;;26.50;35.90;;;;;;4973311;28;44927;-67
2022/07/28 06:57:42;;;;;;;5.82;2.10;;;26.50;35.80;;;;;;4982300;28;45444;-68
2022/07/28 07:00:10;;;;;;;6.07;1.90;;;26.60;35.70;;;;;;4972127;28;44952;-66
2022/07/28 07:02:40;;;;;;;6.05;2.40;;;26.70;35.50;;;;;;4985480;28;45096;-67
2022/07/28 07:05:07;;;;;;;6.88;2.17;;;26.70;35.40;;;;;;4985605;28;44968;-69
2022/07/28 07:07:34;;;;;;;9.35;2.20;;;26.70;35.40;;;;;;4984150;28;46118;-71
2022/07/28 07:10:00;;;;;;;5.07;2.13;;;26.70;35.30;;;;;;4968785;28;45129;-67
2022/07/28 07:12:26;;;;;;;3.15;1.98;;;26.70;35.30;;;;;;4969164;28;45081;-67
2022/07/28 07:14:53;;;;;;;5.55;1.98;;;26.70;35.30;;;;;;4955922;28;45734;-69
2022/07/28 07:17:19;;;;;;;5.35;2.30;;;26.70;35.30;;;;;;4984815;28;46336;-71
2022/07/28 07:19:45;;;;;;;6.05;2.25;;;26.80;35.30;;;;;;4984412;28;45002;-69
2022/07/28 07:22:15;;;;;;;5.53;2.15;;;26.80;35.30;;;;;;4972068;28;44948;-70
2022/07/28 07:24:42;;;;;;;4.78;2.00;;;26.80;35.20;;;;;;4983860;28;44997;-69
2022/07/28 07:27:08;;;;;;;4.75;2.17;;;26.80;35.30;;;;;;4952896;28;45795;-68
2022/07/28 07:29:35;;;;;;;7.07;2.00;;;26.80;35.20;;;;;;4979924;28;45223;-68
2022/07/28 07:32:01;;;;;;;5.20;2.40;;;26.80;35.20;;;;;;4984621;28;44769;-67
2022/07/28 07:34:27;;;;;;;4.20;1.83;;;26.90;35.30;;;;;;4984351;28;45063;-67
2022/07/28 07:36:53;;;;;;;6.15;2.05;;;26.90;35.20;;;;;;4983333;28;45143;-66
2022/07/28 07:39:20;;;;;;;6.57;2.13;;;27.00;35.20;;;;;;4967064;28;45006;-67
2022/07/28 07:41:46;;;;;;;6.18;2.10;;;27.00;35.00;;;;;;4978874;28;45107;-67
2022/07/28 07:44:12;;;;;;;5.63;2.33;;;27.00;34.90;;;;;;4985597;28;45247;-66
2022/07/28 07:46:39;;;;;;;5.50;2.33;;;27.00;34.80;;;;;;4984698;28;45507;-71
2022/07/28 07:49:05;;;;;;;4.45;2.08;;;27.00;34.90;;;;;;4967924;28;45158;-66
2022/07/28 07:51:31;;;;;;;6.70;2.30;;;27.00;34.80;;;;;;4968272;28;45223;-70
2022/07/28 07:53:58;;;;;;;5.63;2.00;;;27.10;34.90;;;;;;4966608;28;45142;-67
2022/07/28 07:56:24;;;;;;;4.68;2.30;;;27.10;34.90;;;;;;4962415;28;47193;-67
2022/07/28 07:58:52;;;;;;;4.75;2.08;;;27.10;34.80;;;;;;4985339;28;44835;-66
2022/07/28 08:01:18;;;;;;;3.00;1.77;;;27.20;34.70;;;;;;4969467;28;44998;-69
2022/07/28 08:03:45;;;;;;;4.03;1.88;;;27.20;34.70;;;;;;4984190;28;45285;-66
2022/07/28 08:06:11;;;;;;;3.90;1.88;;;27.20;34.60;;;;;;4983179;28;45179;-66
2022/07/28 08:08:37;;;;;;;5.95;1.65;;;27.30;34.60;;;;;;4980550;28;44913;-70
2022/07/28 08:11:04;;;;;;;4.82;1.75;;;27.30;34.60;;;;;;4980343;28;45026;-65
2022/07/28 08:13:30;;;;;;;3.10;1.77;;;27.40;35.30;;;;;;4979372;28;44950;-67
2022/07/28 08:15:58;;;;;;;5.70;2.00;;;27.40;34.60;;;;;;4984812;28;45153;-66
2022/07/28 08:18:24;;;;;;;5.50;2.03;;;27.40;34.50;;;;;;4969206;28;45194;-66
2022/07/28 08:20:51;;;;;;;5.43;1.80;;;27.50;34.40;;;;;;4981148;28;44976;-67
2022/07/28 08:23:17;;;;;;;5.32;2.00;;;27.50;34.30;;;;;;4982053;28;45026;-64
2022/07/28 08:25:43;;;;;;;5.95;1.70;;;27.50;34.10;;;;;;4981227;28;46243;-67
2022/07/28 08:28:09;;;;;;;5.18;2.00;;;27.50;34.10;;;;;;4981752;28;44805;-68
2022/07/28 08:30:34;;;;;;;5.28;2.35;;;27.60;34.00;;;;;;4949397;28;45252;-66
2022/07/28 08:33:01;;;;;;;2.90;1.85;;;27.60;33.90;;;;;;4987897;28;44998;-66
2022/07/28 08:35:27;;;;;;;3.80;2.00;;;27.60;33.90;;;;;;4984561;28;45140;-67
2022/07/28 08:37:52;;;;;;;3.75;1.73;;;27.60;33.90;;;;;;4968145;28;45070;-66
2022/07/28 08:40:18;;;;;;;2.95;1.65;;;27.60;33.80;;;;;;4982185;28;44897;-68
2022/07/28 08:42:55;;;;;;;2.17;1.55;;;27.70;33.80;;;;;;4965507;28;45370;-66
2022/07/28 08:45:21;;;;;;;2.65;1.33;;;27.80;33.70;;;;;;4968558;28;45001;-65
2022/07/28 08:47:46;;;;;;;4.25;1.77;;;27.80;33.80;;;;;;4971708;28;45357;-66
2022/07/28 08:50:12;;;;;;;3.40;1.80;;;27.80;33.80;;;;;;4968485;28;45058;-66
2022/07/28 08:52:38;;;;;;;4.93;1.70;;;27.80;33.40;;;;;;4983628;28;45269;-68
2022/07/28 08:55:05;;;;;;;3.05;1.55;;;27.90;33.30;;;;;;4968769;28;46499;-65
2022/07/28 08:57:33;;;;;;;3.00;1.45;;;28.00;33.20;;;;;;4949620;28;45214;-66
2022/07/28 08:59:58;;;;;;;5.30;1.35;;;28.00;33.00;;;;;;4969317;28;45347;-66
2022/07/28 09:02:25;;;;;;;2.40;1.20;;;28.00;33.00;;;;;;4952408;28;44806;-67
2022/07/28 09:04:52;;;;;;;3.47;1.58;;;28.00;32.90;;;;;;4968813;28;46920;-69
2022/07/28 09:07:17;;;;;;;2.20;1.60;;;28.10;32.80;;;;;;4960965;28;44904;-68
2022/07/28 09:09:44;;;;;;;3.88;1.42;;;28.10;32.80;;;;;;4986771;28;44958;-71
2022/07/28 09:12:09;;;;;;;3.22;1.27;;;28.10;32.60;;;;;;4956580;28;45003;-70
2022/07/28 09:14:35;;;;;;;6.20;1.70;;;28.20;32.50;;;;;;4983568;28;45570;-67
2022/07/28 09:17:01;;;;;;;5.10;1.40;;;28.20;32.40;;;;;;4975243;28;44637;-69
2022/07/28 09:19:27;;;;;;;2.60;1.40;;;28.20;32.30;;;;;;4972836;28;44970;-70
2022/07/28 09:21:54;;;;;;;2.25;1.35;;;28.30;32.20;;;;;;4967144;28;45022;-71
2022/07/28 09:24:40;;;;;;;3.92;1.30;;;28.30;32.20;;;;;;4970510;28;46205;-68
2022/07/28 09:27:07;;;;;;;2.85;1.30;;;28.40;31.80;;;;;;4982405;28;45180;-66
2022/07/28 09:29:34;;;;;;;6.18;1.70;;;28.40;32.20;;;;;;4969910;28;44996;-67
2022/07/28 09:32:00;;;;;;;3.58;1.60;;;28.40;32.20;;;;;;4980830;28;44793;-66
2022/07/28 09:34:25;;;;;;;2.55;1.58;;;28.50;32.30;;;;;;4966952;28;46352;-67
2022/07/28 09:36:51;;;;;;;3.22;1.50;;;28.50;32.30;;;;;;4979577;28;45232;-67
2022/07/28 09:39:34;;;;;;;4.80;1.35;;;28.50;32.10;;;;;;4970913;28;45359;-67
2022/07/28 09:41:59;;;;;;;2.85;1.40;;;28.60;31.90;;;;;;4984921;28;45420;-67
2022/07/28 09:44:28;;;;;;;2.45;1.45;;;28.50;32.10;;;;;;4963977;28;46019;-66
2022/07/28 09:46:54;;;;;;;3.35;1.23;;;28.60;32.00;;;;;;4987125;28;45144;-67
2022/07/28 09:49:20;;;;;;;4.05;1.17;;;28.60;32.00;;;;;;4953436;28;45050;-71
2022/07/28 09:52:00;;;;;;;1.92;1.17;;;28.70;31.90;;;;;;4967211;28;45243;-66
2022/07/28 09:54:25;;;;;;;3.38;1.50;;;28.70;31.50;;;;;;4985790;28;45618;-68
2022/07/28 09:56:51;;;;;;;3.80;1.48;;;28.70;31.70;;;;;;4978399;28;45632;-67
2022/07/28 09:59:17;;;;;;;2.83;1.10;;;28.80;31.80;;;;;;4983588;28;45128;-68
2022/07/28 10:01:53;;;;;;;4.53;1.40;;;28.80;31.80;;;;;;4957229;28;45220;-70
2022/07/28 10:04:36;;;;;;;3.75;1.30;;;28.80;31.30;;;;;;4980622;28;46024;-68
2022/07/28 10:07:04;;;;;;;3.15;1.17;;;28.90;31.20;;;;;;4973158;28;44688;-71
2022/07/28 10:09:29;;;;;;;4.88;1.25;;;28.90;31.50;;;;;;4954477;28;44967;-67
2022/07/28 10:12:29;;;;;;;4.68;1.33;;;28.90;31.60;;;;;;4985782;28;44982;-68
2022/07/28 10:14:55;;;;;;;1.95;1.30;;;29.00;31.20;;;;;;4983884;28;45903;-66
2022/07/28 10:17:32;;;;;;;2.85;1.40;;;29.00;31.40;;;;;;4956757;28;45051;-64
2022/07/28 10:20:02;;;;;;;2.45;1.35;;;29.00;30.90;;;;;;4988209;28;45007;-66
2022/07/28 10:22:30;;;;;;;3.63;1.10;;;29.10;31.20;;;;;;4988129;28;44646;-69
2022/07/28 10:24:56;;;;;;;3.45;1.20;;;29.10;31.10;;;;;;4969611;28;46104;-65
2022/07/28 10:27:25;;;;;;;5.43;1.50;;;29.10;31.10;;;;;;4956385;28;44674;-66
2022/07/28 10:30:00;;;;;;;4.10;1.40;;;29.10;31.00;;;;;;4974249;28;45041;-66
2022/07/28 10:32:28;;;;;;;2.88;1.30;;;29.10;31.10;;;;;;4954822;28;45232;-67
2022/07/28 10:35:00;;;;;;;2.10;1.08;;;29.20;31.10;;;;;;4987002;28;45717;-66
2022/07/28 10:37:26;;;;;;;3.50;1.30;;;29.20;30.90;;;;;;4958820;28;45114;-66
2022/07/28 10:40:06;;;;;;;2.83;1.30;;;29.20;31.00;;;;;;4973496;28;44856;-65
2022/07/28 10:42:32;;;;;;;1.50;0.85;;;29.20;30.50;;;;;;4990455;28;44838;-66
2022/07/28 10:44:58;;;;;;;1.48;1.17;;;29.20;30.70;;;;;;4969521;28;45965;-66
2022/07/28 10:47:25;;;;;;;3.90;1.23;;;29.30;30.60;;;;;;4982575;28;44949;-65
2022/07/28 10:49:51;;;;;;;4.95;1.15;;;29.30;30.60;;;;;;4971067;28;45029;-64
2022/07/28 10:52:17;;;;;;;4.60;1.35;;;29.40;30.60;;;;;;4969452;28;45235;-67
2022/07/28 10:55:09;;;;;;;2.47;1.23;;;29.40;30.40;;;;;;4934035;28;45995;-69
2022/07/28 10:57:37;;;;;;;2.88;1.20;;;29.40;30.00;;;;;;4972292;28;44719;-64
2022/07/28 11:00:23;;;;;;;2.10;1.10;;;29.40;30.30;;;;;;4983378;28;45030;-65
2022/07/28 11:02:58;;;;;;;2.58;1.10;;;29.40;29.90;;;;;;4970238;28;45845;-65
2022/07/28 11:05:37;;;;;;;3.20;1.17;;;29.40;30.10;;;;;;4980377;28;46255;-64
2022/07/28 11:08:23;;;;;;;2.88;1.33;;;29.50;30.10;;;;;;4988305;28;44996;-65
2022/07/28 11:10:52;;;;;;;2.83;1.40;;;29.50;29.90;;;;;;4965668;28;45346;-66
2022/07/28 11:13:28;;;;;;;3.78;1.23;;;29.50;30.00;;;;;;4987935;28;45062;-66
2022/07/28 11:15:55;;;;;;;2.50;1.25;;;29.50;29.90;;;;;;4966503;28;45218;-65
2022/07/28 11:18:20;;;;;;;2.38;1.40;;;29.50;30.00;;;;;;4987078;28;44721;-67
2022/07/28 11:20:52;;;;;;;2.05;1.33;;;29.50;30.00;;;;;;4985814;28;45025;-68
2022/07/28 11:23:35;;;;;;;2.63;1.30;;;29.50;30.00;;;;;;4985335;28;45391;-66
2022/07/28 11:26:34;;;;;;;2.00;1.30;;;29.60;30.00;;;;;;4982860;28;45422;-70
2022/07/28 11:29:03;;;;;;;2.50;1.20;;;29.60;30.00;;;;;;4944055;28;44963;-66
2022/07/28 11:31:43;;;;;;;2.38;1.20;;;29.60;30.30;;;;;;4984322;28;45616;-68
2022/07/28 11:34:13;;;;;;;2.90;1.20;;;29.70;30.00;;;;;;4985340;28;44772;-68
2022/07/28 11:36:57;;;;;;;2.03;1.23;;;29.60;30.10;;;;;;4987779;28;45163;-67
2022/07/28 11:39:28;;;;;;;6.10;1.55;;;29.70;30.00;;;;;;4969089;28;45006;-67
2022/07/28 11:41:53;;;;;;;8.63;1.83;;;29.70;30.10;;;;;;4972392;28;45318;-70
2022/07/28 11:44:29;;;;;;;5.63;1.45;;;29.70;30.10;;;;;;4954665;28;45100;-67
2022/07/28 11:47:20;;;;;;;3.70;1.30;;;29.80;30.00;;;;;;4978532;28;45110;-67
2022/07/28 11:50:09;;;;;;;3.83;1.33;;;29.80;29.70;;;;;;4954604;28;45146;-66
2022/07/28 11:52:35;;;;;;;5.10;1.33;;;29.80;29.60;;;;;;4968912;28;45221;-66
2022/07/28 11:55:00;;;;;;;2.58;1.48;;;29.80;30.00;;;;;;4951597;28;44945;-67
2022/07/28 11:57:26;;;;;;;2.45;1.40;;;29.80;30.00;;;;;;4983951;28;46409;-69
2022/07/28 11:59:54;;;;;;;4.50;1.20;;;29.80;30.00;;;;;;4969026;28;44742;-65
2022/07/28 12:02:23;;;;;;;1.70;1.20;;;29.80;30.10;;;;;;4982985;28;44953;-67
2022/07/28 12:04:57;;;;;;;2.88;1.17;;;29.80;30.10;;;;;;4965551;28;44846;-69
2022/07/28 12:07:54;;;;;;;2.63;1.40;;;29.90;30.20;;;;;;4986124;28;45281;-67
2022/07/28 12:10:33;;;;;;;2.30;1.40;;;29.90;30.00;;;;;;4971458;28;45018;-68
2022/07/28 12:13:06;;;;;;;3.08;1.42;;;29.90;30.00;;;;;;4972300;28;45259;-68
2022/07/28 12:15:32;;;;;;;5.22;1.88;;;29.90;30.00;;;;;;4953752;28;45598;-68
2022/07/28 12:18:00;;;;;;;2.03;1.40;;;29.90;30.00;;;;;;4955143;28;46050;-66
2022/07/28 12:20:33;;;;;;;1.85;1.30;;;30.00;30.00;;;;;;4949405;28;45429;-65
2022/07/28 12:23:03;;;;;;;2.65;1.20;;;30.00;30.00;;;;;;4973092;28;45196;-67
2022/07/28 12:25:29;;;;;;;2.20;1.40;;;30.00;29.80;;;;;;4969910;28;45431;-65
2022/07/28 12:27:55;;;;;;;2.97;1.52;;;30.00;30.00;;;;;;4941538;28;45904;-65
2022/07/28 12:30:27;;;;;;;3.10;1.30;;;30.00;29.90;;;;;;4973172;28;45386;-67
2022/07/28 12:32:53;;;;;;;2.13;1.30;;;30.00;29.70;;;;;;4953771;28;45235;-65
2022/07/28 12:35:19;;;;;;;5.05;1.70;;;30.00;29.80;;;;;;4979458;28;45305;-65
2022/07/28 12:37:47;;;;;;;2.08;1.10;;;30.10;29.90;;;;;;4948075;28;45837;-65
2022/07/28 12:40:14;;;;;;;2.63;1.40;;;30.10;29.90;;;;;;4973074;28;44670;-65
2022/07/28 12:42:39;;;;;;;3.30;1.40;;;30.10;29.80;;;;;;4960709;28;45325;-65
2022/07/28 12:45:08;;;;;;;5.90;1.25;;;30.10;29.80;;;;;;4979233;28;44962;-66
2022/07/28 12:47:34;;;;;;;5.82;1.20;;;30.20;29.80;;;;;;4982856;28;47880;-66
2022/07/28 12:50:07;;;;;;;2.55;1.50;;;30.20;29.70;;;;;;4963424;28;45441;-67
2022/07/28 12:52:33;;;;;;;;;;;30.20;29.50;;;;;;4981001;28;45281;-66
2022/07/28 12:54:58;;;;;;;2.72;1.33;;;30.10;29.20;;;;;;4962876;28;45714;-64
2022/07/28 12:57:46;;;;;;;4.13;1.50;;;30.10;29.70;;;;;;4947707;28;45299;-64
2022/07/28 13:00:12;;;;;;;4.15;1.60;;;30.20;29.20;;;;;;4980718;28;45341;-66
2022/07/28 13:02:37;;;;;;;2.75;1.45;;;30.20;29.60;;;;;;4977785;28;45216;-69
2022/07/28 13:05:06;;;;;;;2.03;1.40;;;30.20;29.60;;;;;;4963917;28;44725;-65
2022/07/28 13:07:32;;;;;;;3.13;1.60;;;30.10;29.50;;;;;;4966235;28;46213;-67
2022/07/28 13:10:07;;;;;;;4.35;1.58;;;30.20;29.70;;;;;;4967537;28;45625;-65
2022/07/28 13:12:33;;;;;;;2.58;1.30;;;30.20;29.60;;;;;;4947492;28;45318;-68
2022/07/28 13:15:01;;;;;;;2.60;1.58;;;30.20;29.70;;;;;;4981010;28;45181;-64
2022/07/28 13:17:31;;;;;;;2.42;1.50;;;30.20;29.60;;;;;;4979965;28;45254;-65
2022/07/28 13:20:04;;;;;;;3.72;1.30;;;30.20;29.70;;;;;;4983366;28;44731;-64
2022/07/28 13:22:32;;;;;;;2.45;1.20;;;30.20;29.40;;;;;;4980008;28;45040;-66
2022/07/28 13:24:57;;;;;;;5.65;1.77;;;30.20;29.60;;;;;;4972192;28;45006;-65
2022/07/28 13:27:23;;;;;;;2.88;1.05;;;30.20;29.60;;;;;;4977415;28;46313;-64
2022/07/28 13:29:49;;;;;;;2.88;1.38;;;30.20;29.50;;;;;;4976775;28;45209;-65
2022/07/28 13:32:15;;;;;;;2.67;1.60;;;30.20;29.70;;;;;;4980208;28;45159;-64
2022/07/28 13:34:41;;;;;;;1.48;1.10;;;30.20;29.90;;;;;;4969698;28;45603;-67
2022/07/28 13:37:07;;;;;;;2.83;1.30;;;30.20;29.70;;;;;;4961755;28;45153;-66
2022/07/28 13:39:32;;;;;;;1.95;1.40;;;30.30;29.70;;;;;;4975537;28;45092;-66
2022/07/28 13:41:58;;;;;;;2.10;1.30;;;30.30;29.80;;;;;;4975453;28;45526;-68
2022/07/28 13:44:27;;;;;;;1.52;1.38;;;30.30;29.90;;;;;;4963617;28;46771;-65
2022/07/28 13:46:52;;;;;;;3.38;1.52;;;30.30;29.90;;;;;;4978209;28;45189;-67
2022/07/28 13:49:18;;;;;;;2.95;1.20;;;30.30;29.80;;;;;;4973133;28;44605;-66
2022/07/28 13:51:44;;;;;;;2.08;1.40;;;30.30;29.90;;;;;;4971262;28;45272;-67
2022/07/28 13:54:09;;;;;;;2.22;1.60;;;30.30;30.00;;;;;;4975113;28;45139;-66
2022/07/28 13:56:36;;;;;;;2.50;1.40;;;30.30;30.00;;;;;;4968472;28;46243;-65
2022/07/28 13:59:02;;;;;;;2.53;1.30;;;30.30;30.00;;;;;;4971625;28;45642;-64
2022/07/28 14:01:27;;;;;;;2.50;1.30;;;30.30;30.00;;;;;;4958996;28;45457;-68
2022/07/28 14:03:53;;;;;;;2.40;1.50;;;30.40;29.90;;;;;;4940099;28;45360;-64
2022/07/28 14:06:19;;;;;;;1.80;1.23;;;30.40;29.80;;;;;;4952272;28;45942;-64
2022/07/28 14:08:44;;;;;;;2.45;1.52;;;30.30;29.70;;;;;;4973805;28;45081;-65
2022/07/28 14:11:10;;;;;;;1.67;1.17;;;30.40;29.60;;;;;;4938524;28;45265;-66
2022/07/28 14:13:35;;;;;;;2.30;1.38;;;30.40;29.50;;;;;;4968397;28;45160;-66
2022/07/28 14:16:02;;;;;;;3.40;1.50;;;30.40;29.30;;;;;;4975427;28;46444;-68
2022/07/28 14:18:27;;;;;;;3.75;1.63;;;30.40;29.20;;;;;;4945301;28;45754;-66
2022/07/28 14:20:53;;;;;;;2.83;1.40;;;30.40;29.30;;;;;;4974834;28;44719;-68
2022/07/28 14:23:18;;;;;;;2.97;1.60;;;30.40;29.40;;;;;;4970876;28;46342;-67
2022/07/28 14:25:44;;;;;;;4.65;1.40;;;30.40;29.40;;;;;;4962426;28;46822;-67
2022/07/28 14:28:09;;;;;;;2.83;1.27;;;30.40;29.40;;;;;;4951466;28;45380;-69
2022/07/28 14:30:35;;;;;;;3.35;1.48;;;30.40;29.50;;;;;;4974018;28;45232;-66
2022/07/28 14:33:01;;;;;;;5.00;1.20;;;30.40;29.50;;;;;;4968786;28;45268;-66
2022/07/28 14:35:26;;;;;;;2.38;1.23;;;30.40;29.50;;;;;;4957647;28;45302;-66
2022/07/28 14:37:52;;;;;;;1.92;1.30;;;30.40;29.60;;;;;;4949266;28;44651;-66
2022/07/28 14:40:17;;;;;;;1.88;1.15;;;30.40;29.50;;;;;;4959051;28;45447;-67
2022/07/28 14:42:43;;;;;;;1.92;1.30;;;30.40;29.40;;;;;;4980952;28;45198;-66
2022/07/28 14:45:09;;;;;;;2.53;1.00;;;30.40;29.40;;;;;;4958896;28;45639;-66
2022/07/28 14:47:35;;;;;;;2.60;1.48;;;30.40;29.30;;;;;;4951408;28;45427;-69
2022/07/28 14:50:00;;;;;;;4.00;1.10;;;30.40;29.20;;;;;;4973649;28;45354;-65
2022/07/28 14:52:26;;;;;;;2.97;1.48;;;30.40;29.10;;;;;;4969887;28;44825;-68
2022/07/28 14:54:55;;;;;;;4.00;1.48;;;30.40;29.00;;;;;;4961180;28;46091;-67
2022/07/28 14:57:21;;;;;;;1.95;1.10;;;30.40;29.00;;;;;;4961286;28;45354;-66
2022/07/28 14:59:46;;;;;;;4.53;1.40;;;30.40;29.00;;;;;;4956806;28;45249;-66
2022/07/28 15:02:12;;;;;;;1.60;1.20;;;30.40;29.30;;;;;;4961581;28;45258;-66
2022/07/28 15:04:37;;;;;;;1.67;1.15;;;30.40;29.20;;;;;;4972814;28;45503;-69
2022/07/28 15:07:03;;;;;;;4.30;1.65;;;30.40;29.20;;;;;;4974545;28;45264;-65
2022/07/28 15:09:29;;;;;;;4.55;1.50;;;30.40;29.20;;;;;;4977145;28;45159;-69
2022/07/28 15:11:54;;;;;;;2.97;1.13;;;30.40;29.30;;;;;;4957695;28;45655;-67
2022/07/28 15:14:20;;;;;;;1.88;1.33;;;30.40;29.30;;;;;;4967519;28;45653;-68
2022/07/28 15:16:45;;;;;;;2.00;1.10;;;30.40;29.30;;;;;;4958056;28;45273;-68
2022/07/28 15:19:11;;;;;;;3.60;1.52;;;30.50;29.60;;;;;;4975263;28;45284;-66
2022/07/28 15:21:38;;;;;;;4.50;1.33;;;30.50;29.40;;;;;;4958722;28;44697;-66
2022/07/28 15:24:05;;;;;;;4.07;1.25;;;30.50;29.50;;;;;;4967434;28;45317;-66
2022/07/28 15:26:31;;;;;;;2.72;1.50;;;30.50;29.60;;;;;;4957269;28;45041;-68
2022/07/28 15:28:56;;;;;;;4.72;1.60;;;30.50;29.50;;;;;;4973332;28;44936;-66
2022/07/28 15:31:24;;;;;;;1.92;1.17;;;30.50;29.50;;;;;;4975151;28;45392;-65
2022/07/28 15:33:50;;;;;;;3.67;1.38;;;30.50;29.50;;;;;;4973301;28;46223;-65
2022/07/28 15:36:17;;;;;;;3.47;1.58;;;30.50;29.40;;;;;;4952409;28;44759;-66
2022/07/28 15:38:42;;;;;;;3.03;1.60;;;30.50;29.30;;;;;;4936477;28;45230;-65
2022/07/28 15:41:08;;;;;;;3.58;1.52;;;30.60;29.20;;;;;;4967916;28;45427;-66
2022/07/28 15:43:34;;;;;;;4.30;1.20;;;30.50;29.20;;;;;;4957279;28;47023;-68
2022/07/28 15:46:02;;;;;;;2.88;1.20;;;30.50;29.10;;;;;;4941595;28;45208;-66
2022/07/28 15:48:28;;;;;;;5.97;1.40;;;30.50;28.90;;;;;;4958855;28;45631;-66
2022/07/28 15:50:53;;;;;;;2.72;1.35;;;30.50;28.90;;;;;;4966009;28;45561;-66
2022/07/28 15:53:19;;;;;;;2.42;1.30;;;30.50;28.90;;;;;;4957188;28;46126;-66